Time;durP1;ratioP1;P1;durP2;ratioP2;P2;SDS_P1;SDS_P2;PMS_P1;PMS_P2;Temp;Humidity;BMP_temperature;BMP_pressure;BME280_temperature;BME280_humidity;BME280_pressure;Samples;Min_cycle;Max_cycle;Signal;HPM_P1;HPM_P2
2022/10/28 00:01:35;;;;;;;9.20;8.20;;;;;;;;;;105327;1300;23900;-29
2022/10/28 00:04:09;;;;;;;9.50;8.40;;;;;;;;;;105326;1278;23751;-29
2022/10/28 00:06:41;;;;;;;9.10;8.20;;;;;;;;;;105309;1300;23758;-29
2022/10/28 00:09:13;;;;;;;8.80;7.90;;;;;;;;;;105314;1294;23682;-29
2022/10/28 00:11:47;;;;;;;8.60;7.70;;;;;;;;;;105399;1292;23816;-29
2022/10/28 00:14:19;;;;;;;9.00;8.10;;;;;;;;;;105398;1288;22482;-29
2022/10/28 00:16:52;;;;;;;9.20;8.20;;;;;;;;;;105369;1292;22503;-29
2022/10/28 00:19:24;;;;;;;9.30;8.10;;;;;;;;;;105307;1299;22636;-29
2022/10/28 00:21:56;;;;;;;9.10;8.20;;;;;;;;;;105316;1300;22480;-29
2022/10/28 00:24:28;;;;;;;9.50;8.20;;;;;;;;;;105325;1306;25401;-29
2022/10/28 00:27:00;;;;;;;10.20;8.40;;;;;;;;;;105329;1299;22502;-29
2022/10/28 00:29:32;;;;;;;9.50;8.40;;;;;;;;;;105291;1291;22524;-29
2022/10/28 00:32:05;;;;;;;9.70;8.70;;;;;;;;;;105372;1284;22482;-29
2022/10/28 00:34:39;;;;;;;9.10;8.20;;;;;;;;;;105398;1290;22532;-29
2022/10/28 00:37:11;;;;;;;9.20;8.30;;;;;;;;;;105387;1284;22494;-29
2022/10/28 00:39:43;;;;;;;10.40;8.70;;;;;;;;;;105328;1300;22510;-29
2022/10/28 00:42:20;;;;;;;8.90;8.00;;;;;;;;;;105307;1300;22543;-29
2022/10/28 00:45:01;;;;;;;9.30;8.30;;;;;;;;;;105264;1288;22494;-29
2022/10/28 00:47:43;;;;;;;9.30;8.40;;;;;;;;;;105293;1294;23963;-29
2022/10/28 00:50:28;;;;;;;10.30;8.70;;;;;;;;;;105303;1291;22501;-29
2022/10/28 00:53:06;;;;;;;9.40;8.30;;;;;;;;;;105372;1292;22555;-29
2022/10/28 00:55:39;;;;;;;8.80;7.90;;;;;;;;;;105354;1286;22720;-29
2022/10/28 00:58:12;;;;;;;9.30;8.40;;;;;;;;;;105354;1294;25394;-29
2022/10/28 01:00:44;;;;;;;9.40;8.40;;;;;;;;;;105280;1294;22457;-29
2022/10/28 01:03:19;;;;;;;9.50;8.50;;;;;;;;;;105279;1283;22544;-29
2022/10/28 01:05:52;;;;;;;8.80;7.90;;;;;;;;;;105282;1291;22507;-29
2022/10/28 01:08:24;;;;;;;9.20;8.30;;;;;;;;;;105282;1291;22581;-29
2022/10/28 01:11:35;;;;;;;9.20;8.30;;;;;;;;;;105289;1290;24356;-29
2022/10/28 01:14:26;;;;;;;9.90;8.80;;;;;;;;;;105341;1304;22592;-29
2022/10/28 01:17:12;;;;;;;9.20;8.30;;;;;;;;;;105344;1294;22523;-29
2022/10/28 01:20:13;;;;;;;8.70;7.80;;;;;;;;;;105350;1306;22478;-29
2022/10/28 01:22:49;;;;;;;9.60;8.40;;;;;;;;;;105253;1299;22583;-29
2022/10/28 01:25:53;;;;;;;8.70;7.80;;;;;;;;;;105294;1294;22693;-29
2022/10/28 01:28:45;;;;;;;9.30;8.40;;;;;;;;;;105286;1300;22475;-29
2022/10/28 01:31:33;;;;;;;9.00;8.00;;;;;;;;;;105234;1291;23902;-29
2022/10/28 01:34:18;;;;;;;9.60;8.10;;;;;;;;;;105278;1290;25206;-30
2022/10/28 01:36:59;;;;;;;9.70;8.60;;;;;;;;;;105302;1291;22485;-29
2022/10/28 01:39:44;;;;;;;8.70;7.80;;;;;;;;;;105282;1283;22469;-29
2022/10/28 01:42:30;;;;;;;9.80;8.10;;;;;;;;;;105258;1291;22492;-29
2022/10/28 01:45:14;;;;;;;9.60;8.60;;;;;;;;;;105298;1300;22489;-29
2022/10/28 01:47:49;;;;;;;;;;;;;;;;;;105310;1300;22459;-29
2022/10/28 01:50:28;;;;;;;8.60;7.70;;;;;;;;;;105290;1300;22499;-29
2022/10/28 01:53:06;;;;;;;9.10;8.00;;;;;;;;;;105263;1300;22488;-29
2022/10/28 01:55:43;;;;;;;9.30;8.00;;;;;;;;;;105266;1300;22485;-29
2022/10/28 01:58:19;;;;;;;8.50;7.60;;;;;;;;;;105280;1279;22560;-29
2022/10/28 02:00:52;;;;;;;9.30;7.80;;;;;;;;;;105311;1291;22488;-29
2022/10/28 02:03:25;;;;;;;8.90;8.00;;;;;;;;;;105247;1300;22495;-29
2022/10/28 02:06:00;;;;;;;9.80;7.90;;;;;;;;;;105284;1296;22520;-29
2022/10/28 02:09:06;;;;;;;8.80;7.90;;;;;;;;;;105263;1294;22471;-29
2022/10/28 02:11:56;;;;;;;8.20;7.40;;;;;;;;;;105238;1292;22485;-29
2022/10/28 02:14:45;;;;;;;8.90;7.90;;;;;;;;;;105256;1300;22496;-29
2022/10/28 02:17:31;;;;;;;8.90;7.90;;;;;;;;;;105254;1299;22555;-29
2022/10/28 02:20:12;;;;;;;8.10;7.30;;;;;;;;;;105295;1299;22496;-29
2022/10/28 02:22:52;;;;;;;8.80;7.90;;;;;;;;;;105252;1291;23607;-29
2022/10/28 02:25:29;;;;;;;9.00;7.60;;;;;;;;;;105302;1299;22481;-29
2022/10/28 02:28:06;;;;;;;8.70;7.50;;;;;;;;;;105275;1300;23948;-29
2022/10/28 02:30:46;;;;;;;10.10;8.00;;;;;;;;;;105299;1300;22485;-29
2022/10/28 02:33:28;;;;;;;8.50;7.60;;;;;;;;;;105290;1294;22497;-29
2022/10/28 02:36:06;;;;;;;8.30;7.50;;;;;;;;;;105304;1299;22585;-29
2022/10/28 02:38:43;;;;;;;8.70;7.70;;;;;;;;;;105290;1300;22475;-29
2022/10/28 02:41:22;;;;;;;9.00;8.00;;;;;;;;;;105327;1287;22721;-29
2022/10/28 02:43:59;;;;;;;8.60;7.70;;;;;;;;;;105263;1294;22495;-29
2022/10/28 02:46:33;;;;;;;8.90;7.70;;;;;;;;;;105311;1278;22470;-29
2022/10/28 02:49:09;;;;;;;8.30;7.20;;;;;;;;;;105303;1299;24350;-29
2022/10/28 02:51:46;;;;;;;8.70;7.80;;;;;;;;;;105341;1287;22477;-29
2022/10/28 02:54:23;;;;;;;8.80;7.90;;;;;;;;;;105334;1288;22563;-29
2022/10/28 02:57:01;;;;;;;8.60;7.70;;;;;;;;;;105384;1298;22471;-29
2022/10/28 02:59:33;;;;;;;7.90;7.10;;;;;;;;;;105373;1293;22485;-29
2022/10/28 03:02:06;;;;;;;9.00;7.80;;;;;;;;;;105369;1300;25230;-29
2022/10/28 03:04:41;;;;;;;8.00;7.20;;;;;;;;;;105248;1293;22479;-29
2022/10/28 03:07:14;;;;;;;8.10;7.30;;;;;;;;;;105317;1286;22497;-29
2022/10/28 03:09:46;;;;;;;8.70;7.80;;;;;;;;;;105303;1299;22532;-29
2022/10/28 03:12:19;;;;;;;8.90;8.00;;;;;;;;;;105290;1287;24000;-29
2022/10/28 03:14:54;;;;;;;8.60;7.70;;;;;;;;;;105361;1284;22474;-29
2022/10/28 03:17:26;;;;;;;8.40;7.30;;;;;;;;;;105417;1301;22468;-29
2022/10/28 03:19:58;;;;;;;7.90;7.10;;;;;;;;;;105377;1297;22502;-29
2022/10/28 03:22:30;;;;;;;8.90;7.70;;;;;;;;;;105367;1292;22471;-29
2022/10/28 03:25:02;;;;;;;7.80;7.00;;;;;;;;;;105297;1285;22506;-29
2022/10/28 03:27:34;;;;;;;8.40;7.60;;;;;;;;;;105304;1299;22650;-29
2022/10/28 03:30:08;;;;;;;9.00;7.50;;;;;;;;;;105298;1289;22633;-29
2022/10/28 03:32:44;;;;;;;8.60;7.50;;;;;;;;;;105302;1299;22468;-29
2022/10/28 03:35:16;;;;;;;7.90;6.90;;;;;;;;;;105341;1291;22492;-29
2022/10/28 03:37:48;;;;;;;8.10;7.10;;;;;;;;;;105379;1297;22608;-29
2022/10/28 03:40:20;;;;;;;8.20;7.40;;;;;;;;;;105338;1295;24569;-29
2022/10/28 03:42:52;;;;;;;8.00;6.90;;;;;;;;;;105362;1301;25247;-29
2022/10/28 03:45:24;;;;;;;8.50;7.50;;;;;;;;;;105283;1292;22463;-29
2022/10/28 03:47:56;;;;;;;8.40;7.60;;;;;;;;;;105319;1293;22488;-29
2022/10/28 03:50:28;;;;;;;8.60;7.70;;;;;;;;;;105320;1294;22501;-29
2022/10/28 03:53:03;;;;;;;8.10;7.30;;;;;;;;;;105296;1300;23821;-29
2022/10/28 03:55:37;;;;;;;7.90;7.10;;;;;;;;;;105258;1293;22483;-29
2022/10/28 03:58:09;;;;;;;7.80;7.00;;;;;;;;;;105288;1299;22492;-29
2022/10/28 04:00:43;;;;;;;7.80;7.00;;;;;;;;;;105312;1300;22511;-29
2022/10/28 04:03:15;;;;;;;8.40;7.40;;;;;;;;;;105292;1290;22484;-29
2022/10/28 04:05:48;;;;;;;8.20;7.30;;;;;;;;;;105251;1300;23814;-29
2022/10/28 04:08:21;;;;;;;7.60;6.60;;;;;;;;;;105334;1291;22522;-29
2022/10/28 04:10:52;;;;;;;;;;;;;;;;;;105363;1300;23791;-29
2022/10/28 04:13:23;;;;;;;7.70;6.90;;;;;;;;;;105289;1300;22478;-29
2022/10/28 04:15:55;;;;;;;7.80;7.00;;;;;;;;;;105269;1285;22487;-29
2022/10/28 04:18:27;;;;;;;8.40;7.50;;;;;;;;;;105297;1300;22481;-29
2022/10/28 04:20:59;;;;;;;7.80;6.90;;;;;;;;;;105324;1293;22472;-29
2022/10/28 04:23:32;;;;;;;8.00;7.20;;;;;;;;;;105285;1299;22510;-29
2022/10/28 04:26:05;;;;;;;7.50;6.70;;;;;;;;;;105269;1300;22582;-29
2022/10/28 04:28:36;;;;;;;7.80;7.00;;;;;;;;;;105276;1287;22495;-29
2022/10/28 04:31:11;;;;;;;7.40;6.60;;;;;;;;;;105170;1294;22486;-29
2022/10/28 04:33:43;;;;;;;7.90;6.90;;;;;;;;;;105282;1294;22524;-29
2022/10/28 04:36:14;;;;;;;8.10;7.00;;;;;;;;;;105221;1301;22470;-29
2022/10/28 04:38:46;;;;;;;7.80;6.90;;;;;;;;;;105290;1299;22470;-29
2022/10/28 04:41:21;;;;;;;7.60;6.80;;;;;;;;;;105268;1294;22509;-29
2022/10/28 04:43:55;;;;;;;7.80;7.00;;;;;;;;;;105258;1294;25375;-29
2022/10/28 04:46:27;;;;;;;7.90;7.00;;;;;;;;;;105248;1283;23761;-29
2022/10/28 04:48:59;;;;;;;7.70;6.90;;;;;;;;;;105284;1292;25244;-29
2022/10/28 04:51:30;;;;;;;8.30;6.70;;;;;;;;;;105287;1291;22487;-29
2022/10/28 04:54:03;;;;;;;7.40;6.60;;;;;;;;;;105293;1297;22591;-29
2022/10/28 04:56:35;;;;;;;7.60;6.70;;;;;;;;;;105279;1297;22625;-29
2022/10/28 04:59:07;;;;;;;8.20;6.80;;;;;;;;;;105305;1293;23905;-29
2022/10/28 05:01:39;;;;;;;7.40;6.60;;;;;;;;;;105284;1299;25254;-29
2022/10/28 05:04:11;;;;;;;7.10;6.40;;;;;;;;;;105295;1291;22478;-29
2022/10/28 05:06:43;;;;;;;7.70;6.40;;;;;;;;;;105260;1293;22478;-29
2022/10/28 05:09:15;;;;;;;7.00;6.30;;;;;;;;;;105268;1299;22490;-29
2022/10/28 05:11:47;;;;;;;7.90;6.80;;;;;;;;;;105264;1299;22850;-29
2022/10/28 05:14:19;;;;;;;7.20;6.40;;;;;;;;;;105263;1298;22492;-29
2022/10/28 05:16:51;;;;;;;7.00;6.20;;;;;;;;;;105238;1301;22467;-29
2022/10/28 05:19:23;;;;;;;7.10;6.20;;;;;;;;;;105271;1300;22478;-29
2022/10/28 05:21:54;;;;;;;7.40;6.50;;;;;;;;;;105296;1285;22476;-29
2022/10/28 05:24:26;;;;;;;8.70;6.30;;;;;;;;;;105286;1291;22478;-30
2022/10/28 05:27:00;;;;;;;6.90;6.00;;;;;;;;;;105258;1287;22495;-29
2022/10/28 05:29:32;;;;;;;8.30;6.60;;;;;;;;;;105284;1285;22478;-29
2022/10/28 05:32:04;;;;;;;8.10;6.30;;;;;;;;;;105272;1294;23868;-29
2022/10/28 05:34:36;;;;;;;8.20;6.50;;;;;;;;;;105142;1301;25376;-29
2022/10/28 05:37:08;;;;;;;8.20;6.00;;;;;;;;;;105244;1286;22732;-29
2022/10/28 05:39:40;;;;;;;7.80;6.30;;;;;;;;;;105255;1293;22487;-29
2022/10/28 05:42:12;;;;;;;7.30;6.00;;;;;;;;;;105296;1287;25916;-29
2022/10/28 05:44:43;;;;;;;8.30;6.50;;;;;;;;;;105185;1285;22759;-29
2022/10/28 05:47:15;;;;;;;7.50;6.30;;;;;;;;;;105227;1291;22622;-29
2022/10/28 05:49:47;;;;;;;6.90;6.20;;;;;;;;;;105193;1300;22562;-30
2022/10/28 05:52:19;;;;;;;7.20;6.50;;;;;;;;;;105267;1294;22547;-30
2022/10/28 05:54:51;;;;;;;7.40;6.20;;;;;;;;;;105301;1301;25352;-30
2022/10/28 05:57:23;;;;;;;7.60;6.30;;;;;;;;;;105236;1290;22555;-30
2022/10/28 05:59:55;;;;;;;7.10;6.40;;;;;;;;;;105308;1307;22500;-30
2022/10/28 06:02:27;;;;;;;7.30;6.30;;;;;;;;;;105280;1288;22452;-30
2022/10/28 06:04:59;;;;;;;7.30;6.20;;;;;;;;;;105289;1292;22619;-30
2022/10/28 06:07:33;;;;;;;7.40;6.10;;;;;;;;;;105290;1297;22521;-30
2022/10/28 06:10:09;;;;;;;7.40;6.30;;;;;;;;;;105368;1301;23448;-30
2022/10/28 06:12:41;;;;;;;7.60;6.00;;;;;;;;;;105386;1300;22476;-30
2022/10/28 06:15:13;;;;;;;6.80;6.00;;;;;;;;;;105370;1301;22562;-30
2022/10/28 06:17:49;;;;;;;6.80;6.10;;;;;;;;;;105276;1285;22511;-30
2022/10/28 06:20:21;;;;;;;7.50;5.70;;;;;;;;;;105210;1299;22473;-30
2022/10/28 06:22:56;;;;;;;7.60;6.00;;;;;;;;;;105287;1294;23833;-30
2022/10/28 06:25:30;;;;;;;6.50;5.80;;;;;;;;;;105304;1300;22676;-30
2022/10/28 06:28:02;;;;;;;7.50;6.10;;;;;;;;;;105308;1303;22482;-30
2022/10/28 06:30:34;;;;;;;8.50;5.50;;;;;;;;;;105363;1290;22541;-30
2022/10/28 06:33:07;;;;;;;7.20;6.00;;;;;;;;;;105366;1296;22474;-30
2022/10/28 06:35:38;;;;;;;7.00;5.80;;;;;;;;;;105381;1299;22478;-30
2022/10/28 06:38:10;;;;;;;7.00;6.00;;;;;;;;;;105063;1287;285224;-30
2022/10/28 06:40:42;;;;;;;7.10;5.80;;;;;;;;;;105283;1306;22537;-30
2022/10/28 06:43:15;;;;;;;7.10;6.30;;;;;;;;;;105290;1290;22628;-30
2022/10/28 06:45:52;;;;;;;6.90;5.90;;;;;;;;;;105293;1291;22472;-30
2022/10/28 06:48:24;;;;;;;6.30;5.60;;;;;;;;;;105292;1303;22608;-30
2022/10/28 06:50:59;;;;;;;7.40;5.90;;;;;;;;;;105382;1306;22619;-30
2022/10/28 06:53:31;;;;;;;7.40;6.00;;;;;;;;;;105365;1294;22526;-31
2022/10/28 06:56:03;;;;;;;7.40;5.50;;;;;;;;;;105374;1303;22537;-31
2022/10/28 06:58:35;;;;;;;7.30;6.00;;;;;;;;;;105282;1285;22483;-31
2022/10/28 07:01:07;;;;;;;;;;;;;;;;;;105272;1299;25344;-31
2022/10/28 07:03:50;;;;;;;7.00;6.10;;;;;;;;;;105284;1300;25915;-31
2022/10/28 07:06:22;;;;;;;7.70;6.40;;;;;;;;;;105290;1300;25263;-31
2022/10/28 07:08:54;;;;;;;14.70;9.80;;;;;;;;;;105317;1292;22485;-31
2022/10/28 07:11:26;;;;;;;14.70;9.10;;;;;;;;;;105361;1301;22471;-31
2022/10/28 07:13:58;;;;;;;12.90;8.80;;;;;;;;;;105352;1301;22467;-31
2022/10/28 07:16:30;;;;;;;14.90;8.40;;;;;;;;;;105365;1291;22468;-31
2022/10/28 07:19:02;;;;;;;13.50;8.20;;;;;;;;;;105273;1294;22470;-32
2022/10/28 07:21:34;;;;;;;10.70;8.10;;;;;;;;;;105268;1300;22521;-32
2022/10/28 07:24:11;;;;;;;11.20;8.30;;;;;;;;;;105275;1291;24196;-32
2022/10/28 07:26:43;;;;;;;10.10;8.00;;;;;;;;;;105266;1285;22483;-32
2022/10/28 07:29:16;;;;;;;10.50;7.90;;;;;;;;;;105302;1304;22488;-32
2022/10/28 07:31:48;;;;;;;11.00;7.90;;;;;;;;;;105380;1304;22476;-32
2022/10/28 07:34:20;;;;;;;10.00;7.90;;;;;;;;;;105344;1300;22794;-32
2022/10/28 07:36:54;;;;;;;12.60;8.20;;;;;;;;;;105318;1297;25394;-32
2022/10/28 07:39:26;;;;;;;10.60;7.80;;;;;;;;;;105282;1303;22530;-32
2022/10/28 07:41:59;;;;;;;10.90;8.20;;;;;;;;;;105289;1300;25375;-32
2022/10/28 07:44:32;;;;;;;11.60;8.40;;;;;;;;;;105276;1301;24233;-32
2022/10/28 07:47:04;;;;;;;10.90;8.20;;;;;;;;;;105312;1287;22715;-32
2022/10/28 07:49:36;;;;;;;10.80;8.00;;;;;;;;;;105290;1306;22495;-32
2022/10/28 07:52:10;;;;;;;11.40;8.20;;;;;;;;;;105350;1291;22528;-32
2022/10/28 07:54:44;;;;;;;11.70;8.20;;;;;;;;;;105311;1300;22489;-32
2022/10/28 07:57:19;;;;;;;11.30;8.00;;;;;;;;;;105333;1294;22471;-32
2022/10/28 07:59:50;;;;;;;14.80;11.50;;;;;;;;;;105393;1278;22497;-32
2022/10/28 08:02:26;;;;;;;12.90;10.60;;;;;;;;;;105192;1302;22491;-31
2022/10/28 08:05:00;;;;;;;12.40;10.20;;;;;;;;;;105210;1294;22531;-30
2022/10/28 08:07:33;;;;;;;14.20;12.10;;;;;;;;;;105244;1293;22469;-30
2022/10/28 08:10:06;;;;;;;12.90;10.60;;;;;;;;;;105214;1302;22668;-30
2022/10/28 08:12:39;;;;;;;14.20;12.00;;;;;;;;;;105235;1293;22542;-31
2022/10/28 08:15:13;;;;;;;12.10;9.50;;;;;;;;;;105218;1295;22491;-30
2022/10/28 08:17:54;;;;;;;13.50;9.50;;;;;;;;;;105220;1297;25355;-31
2022/10/28 08:20:27;;;;;;;13.30;9.60;;;;;;;;;;105189;1288;22715;-32
2022/10/28 08:23:00;;;;;;;13.30;10.20;;;;;;;;;;105211;1300;22489;-31
2022/10/28 08:25:32;;;;;;;13.60;9.70;;;;;;;;;;105259;1303;22492;-31
2022/10/28 08:28:05;;;;;;;14.80;9.40;;;;;;;;;;105223;1294;22699;-32
2022/10/28 08:30:36;;;;;;;13.50;9.60;;;;;;;;;;105176;1293;22713;-31
2022/10/28 08:33:08;;;;;;;12.80;8.90;;;;;;;;;;105194;1285;25836;-31
2022/10/28 08:35:48;;;;;;;15.80;11.40;;;;;;;;;;105220;1294;25898;-32
2022/10/28 08:38:21;;;;;;;13.20;10.20;;;;;;;;;;105196;1306;22535;-33
2022/10/28 08:41:12;;;;;;;15.80;10.80;;;;;;;;;;105141;1294;22462;-32
2022/10/28 08:44:04;;;;;;;12.30;10.20;;;;;;;;;;105153;1302;25328;-32
2022/10/28 08:46:58;;;;;;;12.50;10.20;;;;;;;;;;105081;1303;22484;-32
2022/10/28 08:49:36;;;;;;;12.30;10.40;;;;;;;;;;105051;1290;22531;-32
2022/10/28 08:52:21;;;;;;;13.40;10.70;;;;;;;;;;105213;1285;22553;-32
2022/10/28 08:54:57;;;;;;;13.10;10.10;;;;;;;;;;105196;1302;22652;-32
2022/10/28 08:57:39;;;;;;;13.40;10.70;;;;;;;;;;105220;1303;22501;-32
2022/10/28 09:00:23;;;;;;;11.40;9.90;;;;;;;;;;105232;1286;22471;-31
2022/10/28 09:03:17;;;;;;;17.30;11.50;;;;;;;;;;105294;1297;22488;-32
2022/10/28 09:05:49;;;;;;;;;;;;;;;;;;105241;1293;22451;-30
2022/10/28 09:08:29;;;;;;;12.30;9.50;;;;;;;;;;105266;1290;24004;-30
2022/10/28 09:11:19;;;;;;;12.90;10.50;;;;;;;;;;105212;1281;22503;-30
2022/10/28 09:14:10;;;;;;;11.90;9.70;;;;;;;;;;105208;1295;22485;-31
2022/10/28 09:16:49;;;;;;;12.50;9.60;;;;;;;;;;105247;1300;22528;-31
2022/10/28 09:19:43;;;;;;;13.10;9.90;;;;;;;;;;105293;1293;23089;-30
2022/10/28 09:22:23;;;;;;;;;;;;;;;;;;105219;1301;22485;-30
2022/10/28 09:25:05;;;;;;;12.30;9.80;;;;;;;;;;105225;1294;22488;-32
2022/10/28 09:28:00;;;;;;;12.20;9.80;;;;;;;;;;105230;1287;22719;-33
2022/10/28 09:30:48;;;;;;;11.80;9.90;;;;;;;;;;105226;1293;22474;-33
2022/10/28 09:33:47;;;;;;;11.60;9.20;;;;;;;;;;105269;1300;25868;-31
2022/10/28 09:36:30;;;;;;;9.80;8.50;;;;;;;;;;105256;1299;23838;-31
2022/10/28 09:39:08;;;;;;;10.70;9.30;;;;;;;;;;105293;1302;24011;-32
2022/10/28 09:41:42;;;;;;;12.10;9.70;;;;;;;;;;105204;1300;22752;-32
2022/10/28 09:44:21;;;;;;;10.50;9.30;;;;;;;;;;105250;1301;22516;-32
2022/10/28 09:46:58;;;;;;;12.30;9.50;;;;;;;;;;105222;1301;22534;-31
2022/10/28 09:49:38;;;;;;;10.90;9.20;;;;;;;;;;105246;1301;22508;-32
2022/10/28 09:52:19;;;;;;;10.50;8.80;;;;;;;;;;105211;1294;23998;-32
2022/10/28 09:54:53;;;;;;;11.60;9.10;;;;;;;;;;105281;1294;22499;-32
2022/10/28 09:57:31;;;;;;;9.70;8.70;;;;;;;;;;105297;1289;22500;-32
2022/10/28 10:00:04;;;;;;;10.60;9.20;;;;;;;;;;105267;1295;23838;-32
2022/10/28 10:02:35;;;;;;;;;;;;;;;;;;105283;1300;22466;-32
2022/10/28 10:05:17;;;;;;;10.60;9.30;;;;;;;;;;105277;1293;23981;-32
2022/10/28 10:07:55;;;;;;;10.90;8.80;;;;;;;;;;105241;1280;23865;-32
2022/10/28 10:10:35;;;;;;;10.00;8.90;;;;;;;;;;105225;1295;22527;-32
2022/10/28 10:13:08;;;;;;;11.70;9.20;;;;;;;;;;105306;1296;22644;-32
2022/10/28 10:15:45;;;;;;;9.90;8.90;;;;;;;;;;105392;1292;23877;-32
2022/10/28 10:18:24;;;;;;;10.80;8.90;;;;;;;;;;105327;1292;23659;-32
2022/10/28 10:20:58;;;;;;;10.60;9.20;;;;;;;;;;105257;1306;22553;-30
2022/10/28 10:23:33;;;;;;;10.50;8.50;;;;;;;;;;105200;1300;24545;-32
2022/10/28 10:26:08;;;;;;;10.30;9.10;;;;;;;;;;105234;1280;23813;-31
2022/10/28 10:28:46;;;;;;;10.50;8.80;;;;;;;;;;105216;1301;22474;-31
2022/10/28 10:31:24;;;;;;;10.70;9.20;;;;;;;;;;105203;1301;23010;-31
2022/10/28 10:33:58;;;;;;;10.10;9.00;;;;;;;;;;105244;1300;22465;-30
2022/10/28 10:36:32;;;;;;;10.40;8.50;;;;;;;;;;105306;1288;22478;-30
2022/10/28 10:39:05;;;;;;;9.90;8.90;;;;;;;;;;105307;1289;22466;-31
2022/10/28 10:41:41;;;;;;;11.90;9.10;;;;;;;;;;105255;1298;23856;-33
2022/10/28 10:44:35;;;;;;;11.00;8.60;;;;;;;;;;105245;1288;25452;-33
2022/10/28 10:47:22;;;;;;;9.70;8.60;;;;;;;;;;105238;1303;22537;-32
2022/10/28 10:50:17;;;;;;;9.90;8.60;;;;;;;;;;105224;1306;23011;-32
2022/10/28 10:52:56;;;;;;;9.90;8.80;;;;;;;;;;105252;1302;22484;-32
2022/10/28 10:55:36;;;;;;;9.20;8.20;;;;;;;;;;105298;1292;25378;-32
2022/10/28 10:58:18;;;;;;;10.30;8.30;;;;;;;;;;105294;1293;22482;-32
2022/10/28 11:00:54;;;;;;;10.20;8.70;;;;;;;;;;105246;1283;22483;-31
2022/10/28 11:03:30;;;;;;;11.20;8.40;;;;;;;;;;105109;1295;23578;-40
2022/10/28 11:06:07;;;;;;;10.20;8.70;;;;;;;;;;105077;1303;22470;-37
2022/10/28 11:08:42;;;;;;;10.40;8.20;;;;;;;;;;104966;1300;24633;-36
2022/10/28 11:11:21;;;;;;;9.40;8.30;;;;;;;;;;105127;1301;22495;-36
2022/10/28 11:14:11;;;;;;;10.20;8.40;;;;;;;;;;104958;1301;24245;-38
2022/10/28 11:16:55;;;;;;;9.40;8.10;;;;;;;;;;105004;1295;25978;-38
2022/10/28 11:19:32;;;;;;;8.90;7.90;;;;;;;;;;104981;1293;25259;-37
2022/10/28 11:22:20;;;;;;;8.70;7.50;;;;;;;;;;104971;1303;23302;-38
2022/10/28 11:25:18;;;;;;;10.50;8.60;;;;;;;;;;104913;1295;27966;-39
2022/10/28 11:28:03;;;;;;;9.60;8.40;;;;;;;;;;104952;1306;24252;-40
2022/10/28 11:30:48;;;;;;;9.80;8.70;;;;;;;;;;104955;1306;23967;-40
2022/10/28 11:33:24;;;;;;;9.40;8.30;;;;;;;;;;104943;1287;23159;-40
2022/10/28 11:36:07;;;;;;;9.50;7.90;;;;;;;;;;104953;1300;24248;-38
2022/10/28 11:39:10;;;;;;;9.50;8.50;;;;;;;;;;104944;1284;24130;-41
2022/10/28 11:41:59;;;;;;;9.60;8.50;;;;;;;;;;104958;1300;23149;-41
2022/10/28 11:44:49;;;;;;;9.40;8.00;;;;;;;;;;104921;1289;23754;-39
2022/10/28 11:47:50;;;;;;;8.30;7.40;;;;;;;;;;104940;1304;25048;-39
2022/10/28 11:50:41;;;;;;;10.10;8.10;;;;;;;;;;104978;1309;25074;-37
2022/10/28 11:53:50;;;;;;;9.20;7.30;;;;;;;;;;104959;1297;23062;-38
2022/10/28 11:56:36;;;;;;;9.40;7.70;;;;;;;;;;104969;1286;26913;-37
2022/10/28 12:00:01;;;;;;;9.40;7.90;;;;;;;;;;104943;1298;25202;-36
2022/10/28 12:03:01;;;;;;;11.00;8.10;;;;;;;;;;104928;1301;25431;-36
2022/10/28 12:05:40;;;;;;;9.20;7.40;;;;;;;;;;104980;1302;24326;-36
2022/10/28 12:08:39;;;;;;;9.50;7.90;;;;;;;;;;104986;1295;24701;-37
2022/10/28 12:11:25;;;;;;;8.90;7.80;;;;;;;;;;105011;1307;23321;-37
2022/10/28 12:14:07;;;;;;;9.10;8.10;;;;;;;;;;104990;1294;24038;-37
2022/10/28 12:16:47;;;;;;;10.10;7.80;;;;;;;;;;104985;1307;29965;-37
2022/10/28 12:19:26;;;;;;;9.40;7.60;;;;;;;;;;104954;1309;23384;-40
2022/10/28 12:22:08;;;;;;;9.00;8.10;;;;;;;;;;104979;1306;25896;-39
2022/10/28 12:24:44;;;;;;;8.70;7.70;;;;;;;;;;104899;1309;25188;-39
2022/10/28 12:27:25;;;;;;;8.90;7.50;;;;;;;;;;105014;1301;25512;-39
2022/10/28 12:30:01;;;;;;;;;;;;;;;;;;105014;1292;23527;-39
2022/10/28 12:32:37;;;;;;;9.00;7.90;;;;;;;;;;105011;1300;22963;-39
2022/10/28 12:35:19;;;;;;;8.90;8.00;;;;;;;;;;104942;1299;25363;-39
2022/10/28 12:37:55;;;;;;;8.60;7.70;;;;;;;;;;104901;1309;23888;-39
2022/10/28 12:40:35;;;;;;;8.80;7.90;;;;;;;;;;104977;1293;22495;-39
2022/10/28 12:43:14;;;;;;;8.20;7.40;;;;;;;;;;104924;1300;25446;-38
2022/10/28 12:45:48;;;;;;;8.20;7.10;;;;;;;;;;104931;1294;25368;-41
2022/10/28 12:48:31;;;;;;;8.60;7.60;;;;;;;;;;105013;1297;23349;-45
2022/10/28 12:51:12;;;;;;;8.20;7.30;;;;;;;;;;105002;1295;25294;-41
2022/10/28 12:53:54;;;;;;;8.70;7.10;;;;;;;;;;104990;1302;23310;-43
2022/10/28 12:56:36;;;;;;;8.90;7.50;;;;;;;;;;104940;1298;23994;-44
2022/10/28 12:59:17;;;;;;;9.10;7.00;;;;;;;;;;104965;1299;23673;-39
2022/10/28 13:01:51;;;;;;;8.10;7.10;;;;;;;;;;104994;1299;24364;-42
2022/10/28 13:04:23;;;;;;;8.90;6.70;;;;;;;;;;105006;1305;23873;-40
2022/10/28 13:07:19;;;;;;;8.90;6.90;;;;;;;;;;104983;1301;24001;-40
2022/10/28 13:10:02;;;;;;;8.00;7.10;;;;;;;;;;104959;1303;24140;-43
2022/10/28 13:13:03;;;;;;;8.90;7.10;;;;;;;;;;104980;1305;22556;-41
2022/10/28 13:15:49;;;;;;;8.00;7.00;;;;;;;;;;104929;1309;23407;-41
2022/10/28 13:19:04;;;;;;;8.50;7.20;;;;;;;;;;104870;1304;29978;-41
2022/10/28 13:22:12;;;;;;;8.20;7.20;;;;;;;;;;104873;1309;24485;-41
2022/10/28 13:24:54;;;;;;;8.40;7.20;;;;;;;;;;104881;1303;22916;-39
2022/10/28 13:27:27;;;;;;;8.30;7.10;;;;;;;;;;104921;1291;24827;-40
2022/10/28 13:30:02;;;;;;;10.30;6.80;;;;;;;;;;105007;1305;25169;-40
2022/10/28 13:32:38;;;;;;;7.90;6.90;;;;;;;;;;105013;1298;25354;-41
2022/10/28 13:35:23;;;;;;;8.30;7.30;;;;;;;;;;104997;1306;22476;-40
2022/10/28 13:37:57;;;;;;;8.20;7.00;;;;;;;;;;104962;1307;23941;-40
2022/10/28 13:41:28;;;;;;;7.70;6.60;;;;;;;;;;105007;1302;25037;-40
2022/10/28 13:44:25;;;;;;;7.60;6.80;;;;;;;;;;105009;1304;24265;-40
2022/10/28 13:47:27;;;;;;;7.90;6.80;;;;;;;;;;105030;1306;22523;-40
2022/10/28 13:50:36;;;;;;;7.80;7.00;;;;;;;;;;105019;1299;23169;-40
2022/10/28 13:53:39;;;;;;;7.50;6.70;;;;;;;;;;105011;1306;24444;-40
2022/10/28 13:56:34;;;;;;;7.00;6.30;;;;;;;;;;105000;1284;24890;-41
2022/10/28 13:59:20;;;;;;;7.90;6.30;;;;;;;;;;104975;1290;25997;-40
2022/10/28 14:01:56;;;;;;;7.70;6.60;;;;;;;;;;104986;1305;24600;-40
2022/10/28 14:04:33;;;;;;;8.30;6.60;;;;;;;;;;105006;1298;25174;-40
2022/10/28 14:07:25;;;;;;;8.00;6.80;;;;;;;;;;104962;1292;24217;-40
2022/10/28 14:10:19;;;;;;;7.10;6.40;;;;;;;;;;105072;1306;26974;-40
2022/10/28 14:12:57;;;;;;;7.30;6.10;;;;;;;;;;105082;1296;24222;-40
2022/10/28 14:15:33;;;;;;;8.90;6.70;;;;;;;;;;105064;1298;23936;-41
2022/10/28 14:18:19;;;;;;;8.20;6.60;;;;;;;;;;105009;1308;24569;-40
2022/10/28 14:21:00;;;;;;;7.30;6.10;;;;;;;;;;104930;1306;22999;-40
2022/10/28 14:24:09;;;;;;;7.50;6.50;;;;;;;;;;104979;1309;25217;-40
2022/10/28 14:27:31;;;;;;;7.70;6.40;;;;;;;;;;104960;1305;25211;-40
2022/10/28 14:30:26;;;;;;;8.70;6.70;;;;;;;;;;104980;1302;24212;-40
2022/10/28 14:33:22;;;;;;;7.60;6.70;;;;;;;;;;105014;1305;22845;-39
2022/10/28 14:36:13;;;;;;;7.30;6.20;;;;;;;;;;105032;1299;23805;-41
2022/10/28 14:39:19;;;;;;;7.60;6.30;;;;;;;;;;104845;1305;212441;-40
2022/10/28 14:42:10;;;;;;;8.10;6.50;;;;;;;;;;104885;1305;23305;-40
2022/10/28 14:45:00;;;;;;;7.90;6.50;;;;;;;;;;104941;1292;23665;-40
2022/10/28 14:48:07;;;;;;;7.70;6.80;;;;;;;;;;104937;1305;23837;-40
2022/10/28 14:50:46;;;;;;;7.30;6.30;;;;;;;;;;104927;1293;31111;-40
2022/10/28 14:53:27;;;;;;;7.30;6.40;;;;;;;;;;104980;1290;25003;-39
2022/10/28 14:56:04;;;;;;;7.70;6.50;;;;;;;;;;104946;1298;24482;-41
2022/10/28 14:58:41;;;;;;;7.80;6.20;;;;;;;;;;104838;1290;23412;-40
2022/10/28 15:01:28;;;;;;;7.40;6.60;;;;;;;;;;104937;1300;30166;-40
2022/10/28 15:04:10;;;;;;;7.40;6.10;;;;;;;;;;104944;1301;26076;-40
2022/10/28 15:06:46;;;;;;;7.80;6.40;;;;;;;;;;104948;1302;22973;-40
2022/10/28 15:09:25;;;;;;;7.40;6.00;;;;;;;;;;104894;1307;22686;-40
2022/10/28 15:12:00;;;;;;;8.20;6.30;;;;;;;;;;105038;1299;25312;-40
2022/10/28 15:14:39;;;;;;;7.50;6.50;;;;;;;;;;104995;1302;24152;-40
2022/10/28 15:17:19;;;;;;;7.00;6.10;;;;;;;;;;105016;1306;23087;-41
2022/10/28 15:19:53;;;;;;;6.90;5.70;;;;;;;;;;104878;1309;22729;-40
2022/10/28 15:22:29;;;;;;;7.40;6.40;;;;;;;;;;104860;1309;25291;-40
2022/10/28 15:25:07;;;;;;;9.40;6.60;;;;;;;;;;104888;1309;24185;-40
2022/10/28 15:27:41;;;;;;;7.80;6.40;;;;;;;;;;104899;1306;22998;-40
2022/10/28 15:30:22;;;;;;;8.00;6.90;;;;;;;;;;104825;1309;25896;-40
2022/10/28 15:33:16;;;;;;;9.00;7.10;;;;;;;;;;104853;1308;24032;-40
2022/10/28 15:35:48;;;;;;;9.00;7.70;;;;;;;;;;104848;1290;23799;-39
2022/10/28 15:38:39;;;;;;;;;;;;;;;;;;104882;1296;22464;-40